Time;durP1;ratioP1;P1;durP2;ratioP2;P2;SDS_P1;SDS_P2;PMS_P1;PMS_P2;Temp;Humidity;BMP_temperature;BMP_pressure;BME280_temperature;BME280_humidity;BME280_pressure;Samples;Min_cycle;Max_cycle;Signal;HPM_P1;HPM_P2
2021/12/18 00:02:00;;;;;;;11.93;2.43;;;7.00;99.90;;;;;;4998774;28;20048;-83
2021/12/18 00:04:25;;;;;;;14.88;2.83;;;7.00;99.90;;;;;;5016981;28;20037;-83
2021/12/18 00:06:52;;;;;;;27.57;3.60;;;6.90;99.90;;;;;;5033004;28;20103;-83
2021/12/18 00:09:18;;;;;;;12.80;2.63;;;6.90;99.90;;;;;;5016036;28;20124;-83
2021/12/18 00:11:45;;;;;;;9.80;3.08;;;6.90;99.90;;;;;;5047803;28;20029;-83
2021/12/18 00:14:11;;;;;;;12.18;2.72;;;6.90;99.90;;;;;;5015910;28;20638;-83
2021/12/18 00:16:37;;;;;;;23.90;3.70;;;6.90;99.90;;;;;;5030982;28;20040;-83
2021/12/18 00:19:03;;;;;;;19.90;3.57;;;6.90;99.90;;;;;;5049398;28;20044;-83
2021/12/18 00:21:28;;;;;;;15.20;2.70;;;6.90;99.90;;;;;;5012795;28;20036;-83
2021/12/18 00:23:54;;;;;;;10.93;2.97;;;6.90;99.90;;;;;;5030145;28;20029;-83
2021/12/18 00:26:20;;;;;;;23.47;4.37;;;6.90;99.90;;;;;;5019567;28;20362;-83
2021/12/18 00:28:47;;;;;;;17.63;3.78;;;6.90;99.90;;;;;;5016389;28;20037;-83
2021/12/18 00:31:13;;;;;;;18.05;3.10;;;6.90;99.90;;;;;;5051136;28;20047;-83
2021/12/18 00:33:39;;;;;;;13.77;3.00;;;6.90;99.90;;;;;;5013882;28;20041;-83
2021/12/18 00:36:04;;;;;;;25.40;3.83;;;6.90;99.90;;;;;;5018387;28;20040;-83
2021/12/18 00:38:30;;;;;;;14.27;3.37;;;6.80;99.90;;;;;;5015712;28;20053;-83
2021/12/18 00:43:36;;;;;;;7.35;1.77;;;6.80;99.90;;;;;;5034737;28;20041;-83
2021/12/18 00:46:02;;;;;;;6.35;1.65;;;6.80;99.90;;;;;;5016703;28;20040;-83
2021/12/18 00:48:28;;;;;;;9.05;1.73;;;6.70;99.90;;;;;;5030681;28;20048;-83
2021/12/18 00:50:54;;;;;;;20.97;2.30;;;6.70;99.90;;;;;;5031763;28;20045;-83
2021/12/18 00:53:20;;;;;;;13.40;2.00;;;6.70;99.90;;;;;;5030692;28;20037;-83
2021/12/18 00:55:46;;;;;;;16.70;2.03;;;6.70;99.90;;;;;;5041041;28;20145;-83
2021/12/18 00:58:12;;;;;;;22.00;3.00;;;6.70;99.90;;;;;;5031775;28;20069;-83
2021/12/18 01:00:40;;;;;;;28.90;2.53;;;6.70;99.90;;;;;;5015714;28;20037;-83
2021/12/18 01:03:14;;;;;;;13.55;1.85;;;6.70;99.90;;;;;;5031691;28;20080;-83
2021/12/18 01:05:40;;;;;;;31.92;2.15;;;6.70;99.90;;;;;;5046773;28;20033;-83
2021/12/18 01:08:06;;;;;;;20.57;1.70;;;6.70;99.90;;;;;;5031825;28;20071;-83
2021/12/18 01:13:07;;;;;;;9.82;1.10;;;6.70;99.90;;;;;;5032368;28;20127;-83
2021/12/18 01:15:41;;;;;;;12.40;0.80;;;6.70;99.90;;;;;;5014095;28;20049;-83
2021/12/18 01:23:36;;;;;;;10.10;1.00;;;6.60;99.90;;;;;;5018729;28;20257;-83
2021/12/18 01:26:04;;;;;;;16.20;1.50;;;6.50;99.90;;;;;;5015329;28;20630;-83
2021/12/18 01:28:30;;;;;;;9.02;0.55;;;6.50;99.90;;;;;;5031851;28;20033;-82
2021/12/18 01:30:56;;;;;;;8.43;0.85;;;6.50;99.90;;;;;;5030745;28;20048;-83
2021/12/18 01:33:21;;;;;;;3.27;0.60;;;6.40;99.90;;;;;;5014605;28;20032;-83
2021/12/18 01:35:48;;;;;;;9.43;0.83;;;6.40;99.90;;;;;;5015140;28;20067;-83
2021/12/18 01:38:14;;;;;;;5.63;0.98;;;6.40;99.90;;;;;;5014552;28;20472;-83
2021/12/18 01:40:40;;;;;;;7.68;0.85;;;6.40;99.90;;;;;;5015503;28;20099;-83
2021/12/18 01:54:10;;;;;;;23.52;0.77;;;6.30;99.90;;;;;;5036784;28;20111;-83
2021/12/18 01:56:36;;;;;;;17.23;0.90;;;6.30;99.90;;;;;;5046600;28;20057;-83
2021/12/18 01:59:02;;;;;;;10.53;0.97;;;6.30;99.90;;;;;;5062853;28;20430;-83
2021/12/18 02:01:28;;;;;;;8.53;0.97;;;6.30;99.90;;;;;;5027579;28;20041;-83
2021/12/18 02:03:54;;;;;;;7.82;1.00;;;6.30;99.90;;;;;;5015213;28;20049;-83
2021/12/18 02:06:20;;;;;;;11.47;1.10;;;6.20;99.90;;;;;;5030794;28;20067;-83
2021/12/18 02:08:46;;;;;;;17.87;1.33;;;6.20;99.90;;;;;;5014421;28;20052;-83
2021/12/18 02:21:45;;;;;;;27.65;1.90;;;6.20;99.90;;;;;;5032977;28;20131;-83
2021/12/18 02:24:11;;;;;;;27.30;2.20;;;6.10;99.90;;;;;;5026855;28;20128;-83
2021/12/18 02:26:37;;;;;;;25.75;1.92;;;6.10;99.90;;;;;;5014092;28;20586;-83
2021/12/18 02:29:05;;;;;;;58.75;3.53;;;6.10;99.90;;;;;;5014040;28;20124;-83
2021/12/18 02:31:31;;;;;;;28.73;2.58;;;6.10;99.90;;;;;;5011592;28;20077;-83
2021/12/18 02:33:57;;;;;;;18.45;2.35;;;6.20;99.90;;;;;;5011140;28;20073;-83
2021/12/18 02:36:25;;;;;;;20.70;2.40;;;6.20;99.90;;;;;;5030053;28;20068;-83
2021/12/18 02:41:40;;;;;;;24.15;3.13;;;6.20;99.90;;;;;;5047271;28;20044;-83
2021/12/18 02:44:11;;;;;;;16.95;2.30;;;6.20;99.90;;;;;;5063694;28;20540;-83
2021/12/18 02:46:38;;;;;;;19.45;2.78;;;6.20;99.90;;;;;;5060316;28;20576;-83
2021/12/18 02:49:15;;;;;;;28.95;3.45;;;6.20;99.90;;;;;;5029567;28;20044;-83
2021/12/18 02:51:42;;;;;;;25.77;3.55;;;6.20;99.90;;;;;;5029301;28;20044;-83
2021/12/18 02:54:08;;;;;;;34.30;3.53;;;6.20;99.90;;;;;;5030453;28;20107;-83
2021/12/18 02:56:34;;;;;;;27.58;3.70;;;6.20;99.90;;;;;;5013770;28;20049;-83
2021/12/18 02:59:05;;;;;;;30.10;4.28;;;6.20;99.90;;;;;;5030207;28;20033;-83
2021/12/18 03:01:33;;;;;;;19.17;4.13;;;6.20;99.90;;;;;;5026808;28;20033;-83
2021/12/18 03:04:01;;;;;;;21.95;4.95;;;6.20;99.90;;;;;;5012558;28;20496;-83
2021/12/18 03:06:38;;;;;;;16.05;4.63;;;6.30;99.90;;;;;;5013356;28;20119;-83
2021/12/18 03:25:17;;;;;;;29.52;4.53;;;6.30;99.90;;;;;;5031723;28;20508;-83
2021/12/18 03:27:43;;;;;;;26.58;4.07;;;6.30;99.90;;;;;;5038059;28;20080;-83
2021/12/18 03:30:10;;;;;;;27.05;4.20;;;6.40;99.90;;;;;;5026535;28;20036;-83
2021/12/18 03:32:35;;;;;;;30.58;4.38;;;6.40;99.90;;;;;;5029146;28;20120;-83
2021/12/18 03:35:03;;;;;;;26.37;5.20;;;6.30;99.90;;;;;;5032062;28;20123;-83
2021/12/18 03:37:29;;;;;;;19.00;4.53;;;6.40;99.90;;;;;;5009048;28;20118;-83
2021/12/18 03:39:54;;;;;;;29.60;5.10;;;6.40;99.90;;;;;;5012976;28;20028;-83
2021/12/18 03:42:20;;;;;;;15.33;3.80;;;6.40;99.90;;;;;;5028641;28;20041;-83
2021/12/18 03:44:46;;;;;;;16.33;4.53;;;6.40;99.90;;;;;;5030044;28;20094;-83
2021/12/18 03:47:12;;;;;;;18.90;4.40;;;6.40;99.90;;;;;;5029886;28;20560;-83
2021/12/18 03:49:38;;;;;;;19.97;4.60;;;6.40;99.90;;;;;;5013855;28;20375;-83
2021/12/18 03:52:04;;;;;;;27.88;5.78;;;6.40;99.90;;;;;;5029515;28;20045;-83
2021/12/18 03:54:30;;;;;;;24.20;4.97;;;6.40;99.90;;;;;;5029579;28;20496;-83
2021/12/18 03:56:56;;;;;;;28.00;4.97;;;6.40;99.90;;;;;;5029177;28;20107;-83
2021/12/18 03:59:21;;;;;;;33.00;6.33;;;6.40;99.90;;;;;;5012335;28;20033;-83
2021/12/18 04:01:47;;;;;;;24.23;5.30;;;6.40;99.90;;;;;;5013382;28;20041;-83
2021/12/18 04:04:13;;;;;;;23.43;5.80;;;6.40;99.90;;;;;;5030075;28;20475;-83
2021/12/18 04:06:39;;;;;;;29.47;6.03;;;6.50;99.90;;;;;;5012109;28;20091;-83
2021/12/18 04:09:06;;;;;;;24.65;5.68;;;6.50;99.90;;;;;;5004930;28;20779;-83
2021/12/18 04:11:33;;;;;;;21.80;4.78;;;6.50;99.90;;;;;;5003807;28;20044;-83
2021/12/18 04:13:58;;;;;;;26.30;5.30;;;6.50;99.90;;;;;;5013469;28;20033;-83
2021/12/18 04:16:24;;;;;;;16.70;4.67;;;6.50;99.90;;;;;;4996599;28;20170;-83
2021/12/18 04:18:50;;;;;;;33.03;5.20;;;6.50;99.90;;;;;;5030099;28;20087;-83
2021/12/18 04:21:16;;;;;;;43.70;5.37;;;6.50;99.90;;;;;;5047308;28;20033;-83
2021/12/18 04:23:42;;;;;;;18.73;4.03;;;6.50;99.90;;;;;;5029978;28;20107;-83
2021/12/18 04:26:08;;;;;;;18.13;3.95;;;6.50;99.90;;;;;;5016257;28;20044;-83
2021/12/18 04:28:34;;;;;;;18.00;3.63;;;6.50;99.90;;;;;;5016046;28;20520;-83
2021/12/18 04:30:59;;;;;;;15.97;3.33;;;6.60;99.90;;;;;;5014745;28;20445;-83
2021/12/18 04:33:26;;;;;;;21.83;3.70;;;6.60;99.90;;;;;;4997175;28;20502;-83
2021/12/18 04:35:52;;;;;;;12.38;3.00;;;6.60;99.90;;;;;;5033219;28;20047;-83
2021/12/18 04:38:18;;;;;;;10.57;3.20;;;6.60;99.90;;;;;;5016108;28;20040;-83
2021/12/18 04:40:44;;;;;;;9.93;3.17;;;6.60;99.90;;;;;;4997067;28;20040;-83
2021/12/18 04:43:10;;;;;;;14.55;3.75;;;6.60;99.90;;;;;;5013091;28;20033;-83
2021/12/18 04:45:35;;;;;;;12.70;3.60;;;6.60;99.90;;;;;;5025768;28;20059;-83
2021/12/18 04:48:01;;;;;;;22.27;4.97;;;6.70;99.90;;;;;;5049377;28;20276;-83
2021/12/18 04:50:27;;;;;;;20.27;4.60;;;6.70;99.90;;;;;;4993716;28;20040;-83
2021/12/18 04:52:53;;;;;;;20.17;5.00;;;6.70;99.90;;;;;;5015114;28;20045;-83
2021/12/18 04:55:19;;;;;;;19.03;4.53;;;6.70;99.90;;;;;;5040934;28;20049;-83
2021/12/18 04:57:45;;;;;;;11.68;3.53;;;6.60;99.90;;;;;;5065488;28;20433;-83
2021/12/18 05:00:14;;;;;;;13.68;4.38;;;6.70;99.90;;;;;;5030964;28;20072;-83
2021/12/18 05:02:43;;;;;;;10.32;3.80;;;6.70;99.90;;;;;;5069421;28;20120;-83
2021/12/18 05:05:13;;;;;;;12.40;3.92;;;6.80;99.90;;;;;;5000114;28;20593;-83
2021/12/18 05:07:43;;;;;;;10.70;3.38;;;6.80;99.90;;;;;;5031704;28;20491;-83
2021/12/18 05:10:10;;;;;;;15.48;3.90;;;6.80;99.90;;;;;;5048507;28;20047;-82
2021/12/18 05:12:37;;;;;;;9.45;2.85;;;6.80;99.90;;;;;;5030807;28;20041;-82
2021/12/18 05:15:04;;;;;;;11.95;4.57;;;6.80;99.90;;;;;;5048127;28;20508;-84
2021/12/18 05:17:30;;;;;;;11.95;4.50;;;6.80;99.90;;;;;;5016371;28;20123;-83
2021/12/18 05:19:55;;;;;;;12.40;4.63;;;6.80;99.90;;;;;;5015690;28;20044;-83
2021/12/18 05:22:21;;;;;;;14.70;4.00;;;6.80;99.90;;;;;;5009431;28;20060;-83
2021/12/18 05:24:47;;;;;;;6.77;2.73;;;6.80;99.90;;;;;;5049669;28;20051;-83
2021/12/18 05:27:13;;;;;;;9.70;2.73;;;6.80;99.90;;;;;;5015774;28;20510;-83
2021/12/18 05:29:38;;;;;;;8.70;2.67;;;6.80;99.90;;;;;;5030643;28;20949;-82
2021/12/18 05:32:04;;;;;;;8.33;2.90;;;6.90;99.90;;;;;;5029026;28;20041;-82
2021/12/18 05:34:36;;;;;;;8.60;3.00;;;6.80;99.90;;;;;;5048534;28;20049;-83
2021/12/18 05:37:31;;;;;;;9.95;2.90;;;6.80;99.90;;;;;;5031626;28;20379;-83
2021/12/18 05:39:58;;;;;;;9.50;2.97;;;6.80;99.90;;;;;;5031256;28;20049;-83
2021/12/18 05:42:23;;;;;;;8.27;2.80;;;6.80;99.90;;;;;;5030745;28;20079;-83
2021/12/18 05:44:49;;;;;;;13.03;3.47;;;6.80;99.90;;;;;;5043961;28;20138;-83
2021/12/18 05:47:15;;;;;;;11.00;3.20;;;6.90;99.90;;;;;;5048327;28;20037;-83
2021/12/18 05:49:41;;;;;;;7.40;2.80;;;6.90;99.90;;;;;;5014124;28;20453;-83
2021/12/18 05:52:07;;;;;;;13.33;3.83;;;6.80;99.90;;;;;;5014584;28;20047;-83
2021/12/18 05:54:34;;;;;;;15.63;3.80;;;6.90;99.90;;;;;;5010251;28;20037;-83
2021/12/18 05:57:03;;;;;;;18.67;3.95;;;6.80;99.90;;;;;;5030440;28;20048;-83
2021/12/18 05:59:28;;;;;;;13.63;4.15;;;6.80;99.90;;;;;;5030862;28;20116;-83
2021/12/18 06:01:54;;;;;;;21.07;4.73;;;6.80;99.90;;;;;;5047035;28;20112;-83
2021/12/18 06:04:20;;;;;;;19.30;4.97;;;6.80;99.90;;;;;;5031701;28;20036;-83
2021/12/18 06:06:46;;;;;;;34.90;6.07;;;6.80;99.90;;;;;;5030661;28;20045;-83
2021/12/18 06:09:12;;;;;;;24.70;4.88;;;6.90;99.90;;;;;;5047957;28;20122;-83
2021/12/18 06:11:39;;;;;;;29.50;5.47;;;6.90;99.90;;;;;;5012786;28;20977;-83
2021/12/18 06:14:05;;;;;;;22.88;5.13;;;6.90;99.90;;;;;;5031351;28;20045;-83
2021/12/18 06:16:31;;;;;;;15.10;4.47;;;6.90;99.90;;;;;;5030530;28;20497;-83
2021/12/18 06:18:57;;;;;;;26.10;5.83;;;6.90;99.90;;;;;;5014040;28;20047;-83
2021/12/18 06:21:23;;;;;;;23.17;5.23;;;6.90;99.90;;;;;;5047196;28;20044;-83
2021/12/18 06:23:52;;;;;;;30.53;6.67;;;6.90;99.90;;;;;;5030718;28;20033;-83
2021/12/18 06:26:19;;;;;;;25.58;6.25;;;6.90;99.90;;;;;;5031003;28;20288;-83
2021/12/18 06:28:45;;;;;;;49.88;7.63;;;6.90;99.90;;;;;;5014295;28;20428;-83
2021/12/18 06:31:10;;;;;;;26.90;5.77;;;6.90;99.90;;;;;;5030527;28;20037;-83
2021/12/18 06:33:36;;;;;;;28.53;6.73;;;6.90;99.90;;;;;;5046458;28;20056;-83
2021/12/18 06:36:03;;;;;;;34.87;6.97;;;6.90;99.90;;;;;;5012892;28;20037;-83
2021/12/18 06:38:28;;;;;;;36.70;6.63;;;6.90;99.90;;;;;;5046464;28;20083;-83
2021/12/18 06:40:54;;;;;;;34.60;7.13;;;6.90;99.90;;;;;;5010422;28;20073;-83
2021/12/18 06:43:20;;;;;;;38.23;8.00;;;6.90;99.90;;;;;;5009527;28;20041;-83
2021/12/18 06:45:46;;;;;;;43.00;8.73;;;6.90;99.90;;;;;;5058015;28;20036;-83
2021/12/18 06:48:12;;;;;;;24.20;6.10;;;6.90;99.90;;;;;;5028661;28;20049;-83
2021/12/18 06:50:38;;;;;;;36.72;7.07;;;6.90;99.90;;;;;;5045184;28;20436;-83
2021/12/18 06:53:05;;;;;;;26.97;6.60;;;6.90;99.90;;;;;;5030268;28;20044;-83
2021/12/18 06:55:31;;;;;;;27.83;6.45;;;6.90;99.90;;;;;;5029836;28;20322;-83
2021/12/18 06:57:57;;;;;;;36.13;6.75;;;6.90;99.90;;;;;;5027933;28;20045;-83
2021/12/18 07:00:24;;;;;;;23.60;6.13;;;6.90;99.90;;;;;;4996666;28;20082;-83
2021/12/18 07:02:51;;;;;;;27.23;5.88;;;6.90;99.90;;;;;;5030091;28;20549;-82
2021/12/18 07:05:17;;;;;;;31.00;6.40;;;7.00;99.90;;;;;;5023530;28;20083;-82
2021/12/18 07:07:43;;;;;;;28.52;5.78;;;7.00;99.90;;;;;;5046402;28;20471;-82
2021/12/18 07:10:11;;;;;;;40.50;7.50;;;7.00;99.90;;;;;;5013421;28;20041;-82
2021/12/18 07:12:37;;;;;;;37.00;6.72;;;7.00;99.90;;;;;;5029726;28;20048;-82
2021/12/18 07:15:04;;;;;;;42.45;7.47;;;7.00;99.90;;;;;;5030187;28;20045;-82
2021/12/18 07:17:30;;;;;;;25.65;6.25;;;7.00;99.90;;;;;;5011548;28;20130;-82
2021/12/18 07:19:56;;;;;;;29.47;6.60;;;7.00;99.90;;;;;;5029751;28;20597;-82
2021/12/18 07:22:22;;;;;;;27.40;6.40;;;7.00;99.90;;;;;;5011895;28;20091;-82
2021/12/18 07:24:47;;;;;;;31.83;6.50;;;7.00;99.90;;;;;;5008558;28;20046;-82
2021/12/18 07:27:13;;;;;;;39.37;7.63;;;7.00;99.90;;;;;;5018515;28;20037;-82
2021/12/18 07:29:39;;;;;;;23.37;5.53;;;7.00;99.90;;;;;;5041841;28;20480;-82
2021/12/18 07:32:05;;;;;;;33.33;5.77;;;7.10;99.90;;;;;;5029074;28;20040;-82
2021/12/18 07:34:31;;;;;;;33.13;6.17;;;7.10;99.90;;;;;;5028970;28;20041;-82
2021/12/18 07:36:56;;;;;;;39.13;5.97;;;7.10;99.90;;;;;;5029188;28;20310;-82
2021/12/18 07:39:22;;;;;;;30.93;5.60;;;7.10;99.90;;;;;;5012980;28;20040;-82
2021/12/18 07:41:48;;;;;;;25.57;5.07;;;7.10;99.90;;;;;;5029532;28;20029;-82
2021/12/18 07:44:13;;;;;;;34.90;6.07;;;7.10;99.90;;;;;;5046097;28;20351;-82
2021/12/18 07:46:39;;;;;;;31.57;6.73;;;7.10;99.90;;;;;;5029611;28;20357;-82
2021/12/18 07:49:07;;;;;;;21.37;5.07;;;7.20;99.90;;;;;;5028263;28;20041;-82
2021/12/18 07:51:33;;;;;;;31.30;6.05;;;7.20;99.90;;;;;;5061668;28;20107;-82
2021/12/18 07:53:59;;;;;;;22.45;5.40;;;7.20;99.90;;;;;;5030435;28;20045;-82
2021/12/18 07:56:25;;;;;;;27.60;5.60;;;7.20;99.90;;;;;;5032949;28;20051;-82
2021/12/18 07:58:52;;;;;;;20.50;5.43;;;7.20;99.90;;;;;;5013121;28;20103;-82
2021/12/18 08:01:18;;;;;;;22.05;5.45;;;7.20;99.90;;;;;;5033217;28;20041;-82
2021/12/18 08:03:43;;;;;;;21.97;6.23;;;7.30;99.90;;;;;;5032459;28;20451;-82
2021/12/18 08:06:09;;;;;;;19.83;6.50;;;7.30;99.90;;;;;;5047175;28;20140;-82
2021/12/18 08:08:35;;;;;;;21.90;6.10;;;7.30;99.90;;;;;;5053362;28;20552;-82
2021/12/18 08:11:01;;;;;;;19.93;5.67;;;7.30;99.90;;;;;;5014880;28;20044;-81
2021/12/18 08:13:27;;;;;;;16.10;4.75;;;7.30;99.90;;;;;;5016279;28;20086;-82
2021/12/18 08:15:53;;;;;;;23.03;4.83;;;7.30;99.90;;;;;;5020867;28;20041;-82
2021/12/18 08:18:19;;;;;;;21.90;5.43;;;7.40;99.90;;;;;;5015056;28;20046;-82
2021/12/18 08:20:45;;;;;;;18.80;5.17;;;7.40;99.90;;;;;;5029878;28;20077;-82
2021/12/18 08:23:10;;;;;;;16.83;5.47;;;7.40;99.90;;;;;;5014763;28;20051;-82
2021/12/18 08:25:37;;;;;;;20.07;4.90;;;7.40;99.90;;;;;;5043817;28;20353;-82
2021/12/18 08:28:04;;;;;;;23.85;5.80;;;7.50;99.90;;;;;;5030075;28;20040;-82
2021/12/18 08:30:32;;;;;;;22.00;5.70;;;7.50;99.90;;;;;;5031430;28;20489;-82
2021/12/18 08:32:58;;;;;;;19.63;6.20;;;7.50;99.90;;;;;;5047712;28;20480;-82
2021/12/18 08:35:30;;;;;;;18.33;5.63;;;7.50;99.90;;;;;;5052982;28;20040;-82
2021/12/18 08:37:57;;;;;;;19.15;5.78;;;7.60;99.90;;;;;;5078231;28;20550;-82
2021/12/18 08:40:24;;;;;;;24.65;6.53;;;7.60;99.90;;;;;;5028767;28;20129;-82
2021/12/18 08:42:53;;;;;;;21.20;6.30;;;7.70;99.90;;;;;;5011826;28;20037;-82
2021/12/18 08:45:19;;;;;;;21.75;6.72;;;7.70;99.90;;;;;;5029829;28;20043;-82
2021/12/18 08:47:44;;;;;;;22.67;6.63;;;7.70;99.90;;;;;;5021403;28;20037;-82
2021/12/18 08:50:17;;;;;;;21.57;6.63;;;7.70;99.90;;;;;;5055826;28;20102;-82
2021/12/18 08:52:47;;;;;;;17.95;6.35;;;7.80;99.90;;;;;;5026508;28;20084;-83
2021/12/18 08:55:14;;;;;;;18.85;6.60;;;7.80;99.90;;;;;;5043519;28;20044;-82
2021/12/18 08:57:40;;;;;;;14.93;6.13;;;7.80;99.90;;;;;;5041182;28;20075;-82
2021/12/18 09:00:12;;;;;;;18.13;5.83;;;7.90;99.90;;;;;;5028872;28;20049;-81
2021/12/18 09:02:40;;;;;;;10.93;5.13;;;7.90;99.90;;;;;;5029388;28;20143;-82
2021/12/18 09:05:07;;;;;;;12.98;5.57;;;7.90;99.90;;;;;;5028024;28;20461;-82
2021/12/18 09:07:33;;;;;;;15.73;5.88;;;8.00;99.90;;;;;;5043539;28;20051;-81
2021/12/18 09:09:59;;;;;;;13.45;5.50;;;8.00;99.90;;;;;;5010165;28;20048;-81
2021/12/18 09:12:25;;;;;;;13.47;5.17;;;8.00;99.90;;;;;;5042730;28;20034;-81
2021/12/18 09:14:51;;;;;;;11.10;5.07;;;8.10;99.90;;;;;;5057513;28;20142;-81
2021/12/18 09:17:17;;;;;;;10.30;4.53;;;8.10;99.90;;;;;;5016937;28;20087;-82
2021/12/18 09:19:43;;;;;;;15.37;4.67;;;8.10;99.90;;;;;;5018767;28;20074;-82
2021/12/18 09:22:09;;;;;;;14.88;5.47;;;8.20;99.90;;;;;;5007335;28;20095;-82
2021/12/18 09:24:35;;;;;;;14.07;5.63;;;8.20;99.90;;;;;;5032876;28;20037;-82
2021/12/18 09:27:02;;;;;;;12.57;5.50;;;8.20;99.90;;;;;;5043904;28;20039;-82
2021/12/18 09:29:27;;;;;;;14.77;6.50;;;8.20;99.90;;;;;;4998292;28;20041;-82
2021/12/18 09:31:53;;;;;;;12.63;5.87;;;8.20;99.90;;;;;;5034008;28;20580;-82
2021/12/18 09:34:19;;;;;;;15.47;6.17;;;8.30;99.90;;;;;;5045350;28;20071;-82
2021/12/18 09:36:45;;;;;;;19.60;6.93;;;8.30;99.90;;;;;;4997204;28;20430;-82
2021/12/18 09:39:13;;;;;;;14.70;6.27;;;8.30;99.90;;;;;;5060333;28;20044;-82
2021/12/18 09:41:39;;;;;;;16.95;6.45;;;8.30;99.90;;;;;;5040227;28;20064;-82
2021/12/18 09:44:05;;;;;;;16.13;6.60;;;8.30;99.90;;;;;;5009800;28;20036;-82
2021/12/18 09:46:32;;;;;;;15.48;6.93;;;8.30;99.90;;;;;;4993162;28;20105;-82
2021/12/18 09:48:58;;;;;;;14.93;7.07;;;8.40;99.90;;;;;;5027570;28;20041;-82
2021/12/18 09:51:27;;;;;;;16.08;7.53;;;8.40;99.90;;;;;;5012878;28;20075;-82
2021/12/18 09:53:57;;;;;;;18.92;6.80;;;8.40;99.90;;;;;;5044522;28;20049;-81
2021/12/18 09:56:29;;;;;;;15.90;6.90;;;8.40;99.90;;;;;;5040501;28;20130;-81
2021/12/18 09:58:55;;;;;;;17.33;6.30;;;8.50;99.90;;;;;;5031054;28;20048;-81
2021/12/18 10:01:21;;;;;;;14.57;6.00;;;8.50;99.90;;;;;;5012717;28;20032;-81
2021/12/18 10:03:58;;;;;;;14.10;5.10;;;8.50;99.90;;;;;;5026168;28;20034;-81
2021/12/18 10:06:44;;;;;;;11.25;4.47;;;8.50;99.90;;;;;;5028618;28;20037;-81
2021/12/18 10:09:32;;;;;;;10.55;5.00;;;8.50;99.90;;;;;;5030812;28;20071;-81
2021/12/18 10:12:01;;;;;;;14.52;5.22;;;8.50;99.90;;;;;;5027063;28;20053;-82
2021/12/18 10:14:39;;;;;;;12.88;5.50;;;8.60;99.90;;;;;;5032117;28;20051;-82
2021/12/18 10:17:18;;;;;;;15.18;6.25;;;8.60;99.90;;;;;;5026298;28;20041;-82
2021/12/18 10:19:43;;;;;;;14.18;5.85;;;8.60;99.90;;;;;;5023039;28;20478;-82
2021/12/18 10:22:11;;;;;;;11.60;4.70;;;8.50;99.90;;;;;;5042203;28;20040;-83
2021/12/18 10:24:40;;;;;;;13.00;4.78;;;8.60;99.90;;;;;;5043340;28;20029;-82
2021/12/18 10:27:18;;;;;;;9.10;3.72;;;8.60;99.90;;;;;;5054224;28;20392;-81
2021/12/18 10:29:51;;;;;;;6.78;3.05;;;8.60;99.90;;;;;;5053008;28;20041;-81
2021/12/18 10:32:20;;;;;;;7.47;2.65;;;8.60;99.90;;;;;;5005742;28;20087;-82
2021/12/18 10:34:59;;;;;;;7.20;2.35;;;8.60;99.90;;;;;;5029109;28;20068;-82
2021/12/18 10:37:34;;;;;;;4.82;2.40;;;8.60;99.90;;;;;;5062985;28;20041;-82
2021/12/18 10:40:07;;;;;;;5.90;2.80;;;8.50;99.90;;;;;;5028335;28;20068;-83
2021/12/18 10:42:39;;;;;;;6.45;1.90;;;8.60;99.90;;;;;;5028002;28;20505;-83
2021/12/18 10:45:20;;;;;;;4.20;1.90;;;8.60;99.90;;;;;;5029047;28;20033;-83
2021/12/18 10:48:03;;;;;;;3.88;1.60;;;8.60;99.90;;;;;;5026454;28;20401;-83
2021/12/18 10:50:53;;;;;;;5.82;1.42;;;8.60;99.90;;;;;;5079851;28;20045;-83
2021/12/18 10:53:29;;;;;;;6.68;2.33;;;8.60;99.90;;;;;;5030967;28;20041;-83
2021/12/18 10:56:01;;;;;;;4.82;1.92;;;8.60;99.90;;;;;;5024891;28;20052;-83
2021/12/18 10:58:33;;;;;;;7.82;2.90;;;8.60;99.90;;;;;;5056544;28;20705;-83
2021/12/18 11:01:11;;;;;;;13.15;3.55;;;8.70;99.90;;;;;;5030009;28;20033;-83
2021/12/18 11:03:41;;;;;;;9.40;3.67;;;8.70;99.90;;;;;;5023437;28;20040;-83
2021/12/18 11:06:18;;;;;;;8.23;3.65;;;8.60;99.90;;;;;;5059225;28;20033;-83
2021/12/18 11:09:04;;;;;;;8.60;4.03;;;8.60;99.90;;;;;;5027890;28;20063;-83
2021/12/18 11:14:30;;;;;;;5.18;1.80;;;8.60;99.90;;;;;;5042750;28;20046;-82
2021/12/18 11:16:59;;;;;;;2.95;1.40;;;8.60;99.90;;;;;;5028770;28;20045;-82
2021/12/18 11:19:28;;;;;;;2.97;0.90;;;8.60;99.90;;;;;;5049220;28;20037;-82
2021/12/18 11:21:57;;;;;;;5.43;0.80;;;8.60;99.90;;;;;;5030271;28;20523;-82
2021/12/18 11:24:39;;;;;;;5.43;1.00;;;8.70;99.90;;;;;;5028266;28;20035;-84
2021/12/18 11:27:10;;;;;;;5.30;2.00;;;8.70;99.90;;;;;;5023899;28;20572;-83
2021/12/18 11:29:57;;;;;;;6.88;2.30;;;8.70;99.90;;;;;;5033897;28;20338;-82
2021/12/18 11:32:27;;;;;;;6.53;1.88;;;8.70;99.90;;;;;;5028098;28;20048;-81
2021/12/18 11:34:54;;;;;;;4.22;2.28;;;8.70;99.90;;;;;;5031682;28;20072;-82
2021/12/18 11:37:21;;;;;;;6.55;2.35;;;8.80;99.90;;;;;;5032996;28;20033;-82
2021/12/18 11:39:49;;;;;;;5.40;2.10;;;8.70;99.90;;;;;;5046023;28;20036;-82
2021/12/18 11:42:16;;;;;;;6.75;2.45;;;8.80;99.90;;;;;;5049436;28;20388;-82
2021/12/18 11:44:45;;;;;;;7.78;2.63;;;8.80;99.90;;;;;;5016037;28;20435;-82
2021/12/18 11:47:33;;;;;;;8.20;2.70;;;8.80;99.90;;;;;;5054423;28;20594;-82
2021/12/18 11:50:06;;;;;;;6.63;2.13;;;8.80;99.90;;;;;;5031472;28;20476;-82
2021/12/18 11:52:52;;;;;;;6.93;2.55;;;8.90;99.90;;;;;;5029616;28;20052;-82
2021/12/18 11:55:18;;;;;;;8.52;2.78;;;8.90;99.90;;;;;;5043055;28;20421;-82
2021/12/18 11:57:50;;;;;;;7.45;2.17;;;8.90;99.90;;;;;;5062386;28;20119;-81
2021/12/18 12:00:18;;;;;;;9.20;2.75;;;8.90;99.90;;;;;;5048974;28;20040;-81
2021/12/18 12:02:48;;;;;;;5.57;2.25;;;8.90;99.90;;;;;;5048982;28;20041;-81
2021/12/18 12:05:16;;;;;;;11.27;2.83;;;8.90;99.90;;;;;;5032149;28;20045;-81
2021/12/18 12:07:43;;;;;;;10.50;2.58;;;9.00;99.90;;;;;;5014143;28;20045;-81
2021/12/18 12:10:22;;;;;;;5.75;2.10;;;9.00;99.90;;;;;;5015634;28;20037;-81
2021/12/18 12:12:52;;;;;;;5.30;2.35;;;8.90;99.90;;;;;;5065236;28;20051;-82
2021/12/18 12:15:20;;;;;;;6.78;2.30;;;8.90;99.90;;;;;;5032980;28;20459;-82
2021/12/18 12:18:03;;;;;;;7.63;2.20;;;8.90;99.90;;;;;;5046454;28;20037;-82
2021/12/18 12:20:37;;;;;;;5.78;2.30;;;8.90;99.90;;;;;;5032588;28;20064;-82
2021/12/18 12:23:03;;;;;;;5.90;2.65;;;8.90;99.90;;;;;;5029879;28;20470;-82
2021/12/18 12:25:50;;;;;;;9.43;2.53;;;8.80;99.90;;;;;;5063340;28;20040;-82
2021/12/18 12:28:21;;;;;;;9.63;2.65;;;8.90;99.90;;;;;;5031596;28;20080;-82
2021/12/18 12:31:03;;;;;;;8.13;2.53;;;8.80;99.90;;;;;;5029509;28;20575;-82
2021/12/18 12:33:32;;;;;;;6.00;2.58;;;8.90;99.90;;;;;;5031103;28;20287;-82
2021/12/18 12:36:01;;;;;;;4.28;1.70;;;8.90;99.90;;;;;;5026889;28;20049;-82
2021/12/18 12:38:37;;;;;;;4.38;2.00;;;8.90;99.90;;;;;;5031431;28;20049;-82
2021/12/18 12:41:36;;;;;;;4.45;1.77;;;8.80;99.90;;;;;;5014197;28;20045;-82
2021/12/18 12:44:28;;;;;;;4.95;2.42;;;8.80;99.90;;;;;;5032014;28;20049;-82
2021/12/18 12:47:27;;;;;;;5.25;2.63;;;8.80;99.90;;;;;;5029719;28;20175;-82
2021/12/18 12:50:01;;;;;;;5.75;2.60;;;8.80;99.90;;;;;;5028784;28;20481;-82
2021/12/18 12:52:29;;;;;;;7.72;3.08;;;8.80;99.90;;;;;;5075709;28;20049;-82
2021/12/18 12:54:59;;;;;;;9.13;3.13;;;8.70;99.90;;;;;;5032690;28;20041;-82
2021/12/18 12:57:30;;;;;;;6.93;2.60;;;8.70;99.90;;;;;;5032423;28;20110;-82
2021/12/18 12:59:59;;;;;;;5.45;2.25;;;8.70;99.90;;;;;;5030939;28;20132;-82
2021/12/18 13:02:35;;;;;;;4.53;1.58;;;8.70;99.90;;;;;;5065685;28;20044;-82
2021/12/18 13:05:02;;;;;;;7.22;2.13;;;8.60;99.90;;;;;;5038391;28;20045;-82
2021/12/18 13:07:28;;;;;;;4.03;1.67;;;8.60;99.90;;;;;;5052392;28;20102;-82
2021/12/18 13:09:54;;;;;;;6.07;1.70;;;8.60;99.90;;;;;;5015122;28;20044;-82
2021/12/18 13:12:20;;;;;;;7.10;2.63;;;8.60;99.90;;;;;;5029125;28;20136;-82
2021/12/18 13:14:46;;;;;;;5.97;2.80;;;8.50;99.90;;;;;;5016104;28;20040;-82
2021/12/18 13:17:20;;;;;;;4.78;2.40;;;8.50;99.90;;;;;;5015582;28;20037;-82
2021/12/18 13:19:56;;;;;;;3.83;2.30;;;8.50;99.90;;;;;;5059079;28;20040;-81
2021/12/18 13:22:28;;;;;;;7.85;3.30;;;8.50;99.90;;;;;;5030592;28;20094;-82
2021/12/18 13:25:08;;;;;;;4.15;2.70;;;8.40;99.90;;;;;;5001087;28;20040;-82
2021/12/18 13:27:36;;;;;;;6.40;3.17;;;8.40;99.90;;;;;;5024768;28;20502;-81
2021/12/18 13:30:20;;;;;;;7.85;3.58;;;8.40;99.90;;;;;;5017215;28;20428;-81
2021/12/18 13:32:53;;;;;;;7.28;3.58;;;8.40;99.90;;;;;;5028070;28;20087;-81
2021/12/18 13:35:21;;;;;;;8.60;4.05;;;8.40;99.90;;;;;;5032000;28;20049;-83
2021/12/18 13:38:15;;;;;;;9.73;4.32;;;8.40;99.90;;;;;;5042472;28;20108;-82
2021/12/18 13:40:50;;;;;;;12.15;4.03;;;8.40;99.90;;;;;;5027806;28;20556;-81
2021/12/18 13:43:24;;;;;;;9.63;4.97;;;8.40;99.90;;;;;;5064703;28;20037;-81
2021/12/18 13:46:03;;;;;;;5.13;3.47;;;8.40;99.90;;;;;;5032179;28;20080;-81
2021/12/18 13:48:35;;;;;;;6.50;2.85;;;8.40;99.90;;;;;;5046658;28;20087;-81
2021/12/18 13:51:14;;;;;;;11.00;4.30;;;8.30;99.90;;;;;;5032660;28;20123;-81
2021/12/18 13:53:58;;;;;;;8.65;4.90;;;8.30;99.90;;;;;;5058157;28;20045;-81